KHON/HON METAR and TAF weather

Enter ICAO airport designator
Station Type Date Time Source
KHON METAR 2021/07/27 20:55 UTC NOAA

KHON 272055Z AUTO 10SM CLR 36/22 A2992 RMK AO2 SLP119 T03560222 58003


Station Type Date Time Source
KHON Decoded METAR 2021/07/27 20:55 UTC NOAA

HURON REGIONAL AIRPORT, SD, United States (KHON) 44-23N 098-14W 390M
Jul 27, 2021 - 04:55 PM EDT / 2021.07.27 2055 UTC
Visibility: 10 mile(s):0
Sky conditions: clear
Temperature: 96.1 F (35.6 C)
Heat index: 104.9 F (40.5 C):1
Dew Point: 72.0 F (22.2 C)
Relative Humidity: 46%
Pressure (altimeter): 29.92 in. Hg (1013 hPa)
Pressure tendency: 0.01 inches (0.3 hPa) lower than three hours ago
ob: KHON 272055Z AUTO 10SM CLR 36/22 A2992 RMK AO2 SLP119 T03560222 58003
cycle: 21

Station Type Date Time Source
KHON TAF 2021/07/27 18:22 UTC NOAA

TAF KHON 271720Z 2718/2818 13006KT P6SM SCT250
FM281500 20010G18KT P6SM FEW250
FM281700 22011G19KT P6SM FEW250

Example: see airport list